Ria Da Coruna — EAGB — position and weather

sailwx.info

Track history (hours):
 
Tides and Currents Weather Stations Pressure Air Temp Water Temp Dewpoint Dewpoint Depression Visibility Wind Speed Wind Dir Waves Ship Positions

Ria Da Coruna

Last reported at 2017-May-23 03:01 UTC. Time now 2017-May-25 16:18 UTC.
Position N 43°58' W 001°54'.

Length 28 m.

Type: Fishing. MMSI: 224068650.

Date/timePositionNaut miles runAvg speedWind from/ knotsBaromVisibWave heightAir tempDewpointWater temp
2017-May-23 03:01N 43°58' W 001°54'0 9.5
2017-May-23 03:00N 43°58' W 001°54'  
2017-May-17 10:40N 43°43' W 002°08'210.5
2017-May-17 10:27N 43°45' W 002°08'610.5
2017-May-17 09:53N 43°51' W 002°08'410.7
2017-May-17 09:30N 43°55' W 002°07'510.7
2017-May-17 09:01N 44°00' W 002°07'510.8
2017-May-17 08:30N 44°06' W 002°06'510.8
2017-May-17 08:01N 44°11' W 002°06'510.6
2017-May-17 07:30N 44°17' W 002°06'1 1.6
2017-May-17 06:39N 44°18' W 002°06'0 0.3
2017-May-17 06:27N 44°18' W 002°06'0 0.3
2017-May-17 05:57N 44°18' W 002°06'0 0.3
2017-May-17 05:30N 44°18' W 002°06'0 0.4
2017-May-17 05:00N 44°18' W 002°06'1 2.9
2017-May-17 04:31N 44°16' W 002°06'12 5.4
2017-May-17 02:21N 44°05' W 002°07'3 8.4
2017-May-17 02:00N 44°06' W 002°10'8 2.9
2017-May-16 23:10N 43°58' W 002°15'0 0.5
2017-May-16 23:00N 43°58' W 002°14'0 0.7
2017-May-16 22:30N 43°58' W 002°14'0 0.9
2017-May-16 22:00N 43°58' W 002°13'0 0.9
2017-May-16 21:29N 43°58' W 002°13'2 3.6
2017-May-16 21:00N 43°59' W 002°11'5 9.1
2017-May-16 20:26N 44°03' W 002°07'3 6.3
2017-May-16 20:01N 44°06' W 002°06'0 0.8
2017-May-16 19:30N 44°06' W 002°06'0 0.3
2017-May-16 18:58N 44°07' W 002°06'11 5.5
2017-May-16 16:59N 44°17' W 002°06'5 9.0
2017-May-16 16:29N 44°13' W 002°04'5 9.8
2017-May-16 16:01N 44°08' W 002°05'5 9.8
2017-May-16 15:30N 44°04' W 002°05'20 9.5
2017-May-16 13:27N 43°44' W 002°09'14 9.2
2017-May-16 11:59N 43°31' W 002°09'4 8.7
2017-May-16 11:31N 43°27' W 002°11'5 9.2
2017-May-16 11:00N 43°22' W 002°11'3 0.8
2017-May-16 07:52N 43°19' W 002°12'410.4
2017-May-16 07:31N 43°23' W 002°12'610.5
2017-May-16 06:56N 43°29' W 002°13'  
Track history (hours):
 
Tides and Currents Weather Stations Pressure Air Temp Water Temp Dewpoint Dewpoint Depression Visibility Wind Speed Wind Dir Waves Ship Positions

Ria Da Coruna

Last reported at 2017-May-23 03:01 UTC. Time now 2017-May-25 16:18 UTC.
Position N 43°58' W 001°54'.

Length 28 m.

Type: Fishing. MMSI: 224068650.

Date/timePositionNaut miles runAvg speedWind from/ knotsBaromVisibWave heightAir tempDewpointWater temp
2017-May-23 03:01N 43°58' W 001°54'0 9.5
2017-May-23 03:00N 43°58' W 001°54'  
2017-May-17 10:40N 43°43' W 002°08'210.5
2017-May-17 10:27N 43°45' W 002°08'610.5
2017-May-17 09:53N 43°51' W 002°08'410.7
2017-May-17 09:30N 43°55' W 002°07'510.7
2017-May-17 09:01N 44°00' W 002°07'510.8
2017-May-17 08:30N 44°06' W 002°06'510.8
2017-May-17 08:01N 44°11' W 002°06'510.6
2017-May-17 07:30N 44°17' W 002°06'1 1.6
2017-May-17 06:39N 44°18' W 002°06'0 0.3
2017-May-17 06:27N 44°18' W 002°06'0 0.3
2017-May-17 05:57N 44°18' W 002°06'0 0.3
2017-May-17 05:30N 44°18' W 002°06'0 0.4
2017-May-17 05:00N 44°18' W 002°06'1 2.9
2017-May-17 04:31N 44°16' W 002°06'12 5.4
2017-May-17 02:21N 44°05' W 002°07'3 8.4
2017-May-17 02:00N 44°06' W 002°10'8 2.9
2017-May-16 23:10N 43°58' W 002°15'0 0.5
2017-May-16 23:00N 43°58' W 002°14'0 0.7
2017-May-16 22:30N 43°58' W 002°14'0 0.9
2017-May-16 22:00N 43°58' W 002°13'0 0.9
2017-May-16 21:29N 43°58' W 002°13'2 3.6
2017-May-16 21:00N 43°59' W 002°11'5 9.1
2017-May-16 20:26N 44°03' W 002°07'3 6.3
2017-May-16 20:01N 44°06' W 002°06'0 0.8
2017-May-16 19:30N 44°06' W 002°06'0 0.3
2017-May-16 18:58N 44°07' W 002°06'11 5.5
2017-May-16 16:59N 44°17' W 002°06'5 9.0
2017-May-16 16:29N 44°13' W 002°04'5 9.8
2017-May-16 16:01N 44°08' W 002°05'5 9.8
2017-May-16 15:30N 44°04' W 002°05'20 9.5
2017-May-16 13:27N 43°44' W 002°09'14 9.2
2017-May-16 11:59N 43°31' W 002°09'4 8.7
2017-May-16 11:31N 43°27' W 002°11'5 9.2
2017-May-16 11:00N 43°22' W 002°11'3 0.8
2017-May-16 07:52N 43°19' W 002°12'410.4
2017-May-16 07:31N 43°23' W 002°12'610.5
2017-May-16 06:56N 43°29' W 002°13'  

Dump ship's entire track history